sensor_id;sensor_type;location;lat;lon;timestamp;temperature;humidity
33139;DHT22;19501;50.948;5.316;2023-02-28T00:00:33;1.40;99.90
33139;DHT22;19501;50.948;5.316;2023-02-28T00:02:59;1.40;99.90
33139;DHT22;19501;50.948;5.316;2023-02-28T00:05:26;1.40;99.90
33139;DHT22;19501;50.948;5.316;2023-02-28T00:07:52;1.50;99.90
33139;DHT22;19501;50.948;5.316;2023-02-28T00:10:24;1.40;99.90
33139;DHT22;19501;50.948;5.316;2023-02-28T00:12:51;1.40;99.90
33139;DHT22;19501;50.948;5.316;2023-02-28T00:15:17;1.30;99.90
33139;DHT22;19501;50.948;5.316;2023-02-28T00:17:43;1.30;99.90
33139;DHT22;19501;50.948;5.316;2023-02-28T00:20:10;1.30;99.90
33139;DHT22;19501;50.948;5.316;2023-02-28T00:22:45;1.20;99.90
33139;DHT22;19501;50.948;5.316;2023-02-28T00:25:15;1.20;99.90
33139;DHT22;19501;50.948;5.316;2023-02-28T00:27:41;1.20;99.90
33139;DHT22;19501;50.948;5.316;2023-02-28T00:30:10;1.20;99.90
33139;DHT22;19501;50.948;5.316;2023-02-28T00:32:36;1.10;99.90
33139;DHT22;19501;50.948;5.316;2023-02-28T00:35:02;1.10;99.90
33139;DHT22;19501;50.948;5.316;2023-02-28T00:37:27;1.00;99.90
33139;DHT22;19501;50.948;5.316;2023-02-28T00:39:53;1.00;99.90
33139;DHT22;19501;50.948;5.316;2023-02-28T00:42:19;1.10;99.90
33139;DHT22;19501;50.948;5.316;2023-02-28T00:44:44;1.10;99.90
33139;DHT22;19501;50.948;5.316;2023-02-28T00:47:10;1.00;99.90
33139;DHT22;19501;50.948;5.316;2023-02-28T00:49:36;0.90;99.90
33139;DHT22;19501;50.948;5.316;2023-02-28T00:52:02;1.00;99.90
33139;DHT22;19501;50.948;5.316;2023-02-28T00:54:27;1.00;99.90
33139;DHT22;19501;50.948;5.316;2023-02-28T00:56:53;0.90;99.90
33139;DHT22;19501;50.948;5.316;2023-02-28T00:59:19;0.80;99.90
33139;DHT22;19501;50.948;5.316;2023-02-28T01:01:46;0.80;99.90
33139;DHT22;19501;50.948;5.316;2023-02-28T01:04:12;0.80;99.90
33139;DHT22;19501;50.948;5.316;2023-02-28T01:06:38;0.80;99.90
33139;DHT22;19501;50.948;5.316;2023-02-28T01:09:06;0.80;99.90
33139;DHT22;19501;50.948;5.316;2023-02-28T01:11:33;0.80;99.90
33139;DHT22;19501;50.948;5.316;2023-02-28T01:13:59;0.80;99.90
33139;DHT22;19501;50.948;5.316;2023-02-28T01:16:25;0.80;99.90
33139;DHT22;19501;50.948;5.316;2023-02-28T01:18:51;0.80;99.90
33139;DHT22;19501;50.948;5.316;2023-02-28T01:21:20;0.90;99.90
33139;DHT22;19501;50.948;5.316;2023-02-28T01:23:47;0.70;99.90
33139;DHT22;19501;50.948;5.316;2023-02-28T01:26:23;0.70;99.90
33139;DHT22;19501;50.948;5.316;2023-02-28T01:28:49;0.70;99.90
33139;DHT22;19501;50.948;5.316;2023-02-28T01:31:16;0.60;99.90
33139;DHT22;19501;50.948;5.316;2023-02-28T01:33:44;0.60;99.90
33139;DHT22;19501;50.948;5.316;2023-02-28T01:36:15;0.70;99.90
33139;DHT22;19501;50.948;5.316;2023-02-28T01:38:42;0.60;99.90
33139;DHT22;19501;50.948;5.316;2023-02-28T01:46:08;0.50;99.90
33139;DHT22;19501;50.948;5.316;2023-02-28T01:48:37;0.50;99.90
33139;DHT22;19501;50.948;5.316;2023-02-28T01:51:09;0.50;99.90
33139;DHT22;19501;50.948;5.316;2023-02-28T01:53:46;0.40;99.90
33139;DHT22;19501;50.948;5.316;2023-02-28T01:56:14;0.50;99.90
33139;DHT22;19501;50.948;5.316;2023-02-28T01:58:54;0.40;99.90
33139;DHT22;19501;50.948;5.316;2023-02-28T02:01:21;0.40;99.90
33139;DHT22;19501;50.948;5.316;2023-02-28T02:03:54;0.40;99.90
33139;DHT22;19501;50.948;5.316;2023-02-28T02:06:30;0.40;99.90
33139;DHT22;19501;50.948;5.316;2023-02-28T02:08:59;0.40;99.90
33139;DHT22;19501;50.948;5.316;2023-02-28T02:11:25;0.50;99.90
33139;DHT22;19501;50.948;5.316;2023-02-28T02:17:25;0.40;99.90
33139;DHT22;19501;50.948;5.316;2023-02-28T02:25:45;0.20;99.90
33139;DHT22;19501;50.948;5.316;2023-02-28T02:41:35;0.00;99.90
33139;DHT22;19501;50.948;5.316;2023-02-28T02:44:10;-0.10;99.90
33139;DHT22;19501;50.948;5.316;2023-02-28T02:46:42;-0.10;99.90
33139;DHT22;19501;50.948;5.316;2023-02-28T02:49:15;-0.20;99.90
33139;DHT22;19501;50.948;5.316;2023-02-28T02:51:41;-0.20;99.90
33139;DHT22;19501;50.948;5.316;2023-02-28T02:54:19;-0.10;99.90
33139;DHT22;19501;50.948;5.316;2023-02-28T02:56:48;-0.20;99.90
33139;DHT22;19501;50.948;5.316;2023-02-28T02:59:17;-0.20;99.90
33139;DHT22;19501;50.948;5.316;2023-02-28T03:01:53;-0.30;99.90
33139;DHT22;19501;50.948;5.316;2023-02-28T03:04:23;-0.10;99.90
33139;DHT22;19501;50.948;5.316;2023-02-28T03:06:51;-0.20;99.90
33139;DHT22;19501;50.948;5.316;2023-02-28T03:09:23;-0.10;99.90
33139;DHT22;19501;50.948;5.316;2023-02-28T03:11:51;-0.20;99.90
33139;DHT22;19501;50.948;5.316;2023-02-28T03:14:31;-0.10;99.90
33139;DHT22;19501;50.948;5.316;2023-02-28T03:20:34;0.00;99.90
33139;DHT22;19501;50.948;5.316;2023-02-28T03:23:16;-0.10;99.90
33139;DHT22;19501;50.948;5.316;2023-02-28T03:25:59;-0.20;99.90
33139;DHT22;19501;50.948;5.316;2023-02-28T03:33:47;-0.50;99.90
33139;DHT22;19501;50.948;5.316;2023-02-28T03:36:25;-0.50;99.90
33139;DHT22;19501;50.948;5.316;2023-02-28T03:38:59;-0.60;99.90
33139;DHT22;19501;50.948;5.316;2023-02-28T03:41:42;-0.60;99.90
33139;DHT22;19501;50.948;5.316;2023-02-28T03:47:37;-0.30;99.90
33139;DHT22;19501;50.948;5.316;2023-02-28T03:50:08;-0.10;99.90
33139;DHT22;19501;50.948;5.316;2023-02-28T03:52:40;0.10;99.90
33139;DHT22;19501;50.948;5.316;2023-02-28T03:55:10;0.10;99.90
33139;DHT22;19501;50.948;5.316;2023-02-28T04:00:27;0.20;99.90
33139;DHT22;19501;50.948;5.316;2023-02-28T04:02:55;0.30;99.90
33139;DHT22;19501;50.948;5.316;2023-02-28T04:05:21;0.30;99.90
33139;DHT22;19501;50.948;5.316;2023-02-28T04:07:47;0.20;99.90
33139;DHT22;19501;50.948;5.316;2023-02-28T04:10:15;0.10;99.90
33139;DHT22;19501;50.948;5.316;2023-02-28T04:12:41;0.10;99.90
33139;DHT22;19501;50.948;5.316;2023-02-28T04:15:07;0.10;99.90
33139;DHT22;19501;50.948;5.316;2023-02-28T04:17:33;0.00;99.90
33139;DHT22;19501;50.948;5.316;2023-02-28T04:19:58;0.20;99.90
33139;DHT22;19501;50.948;5.316;2023-02-28T04:22:24;0.00;99.90
33139;DHT22;19501;50.948;5.316;2023-02-28T04:24:52;0.00;99.90
33139;DHT22;19501;50.948;5.316;2023-02-28T04:27:20;0.10;99.90
33139;DHT22;19501;50.948;5.316;2023-02-28T04:29:46;0.00;99.90
33139;DHT22;19501;50.948;5.316;2023-02-28T04:32:12;0.00;99.90
33139;DHT22;19501;50.948;5.316;2023-02-28T04:34:38;-0.10;99.90
33139;DHT22;19501;50.948;5.316;2023-02-28T04:37:05;-0.10;99.90
33139;DHT22;19501;50.948;5.316;2023-02-28T04:39:35;-0.10;99.90
33139;DHT22;19501;50.948;5.316;2023-02-28T04:42:01;-0.20;99.90
33139;DHT22;19501;50.948;5.316;2023-02-28T04:44:27;-0.30;99.90
33139;DHT22;19501;50.948;5.316;2023-02-28T04:46:52;-0.40;99.90
33139;DHT22;19501;50.948;5.316;2023-02-28T04:49:18;-0.40;99.90
33139;DHT22;19501;50.948;5.316;2023-02-28T04:51:43;-0.50;99.90
33139;DHT22;19501;50.948;5.316;2023-02-28T04:54:09;-0.50;99.90
33139;DHT22;19501;50.948;5.316;2023-02-28T04:56:35;-0.50;99.90
33139;DHT22;19501;50.948;5.316;2023-02-28T04:59:01;-0.40;99.90
33139;DHT22;19501;50.948;5.316;2023-02-28T05:01:32;-0.40;99.90
33139;DHT22;19501;50.948;5.316;2023-02-28T05:04:02;-0.40;99.90
33139;DHT22;19501;50.948;5.316;2023-02-28T05:06:31;-0.40;99.90
33139;DHT22;19501;50.948;5.316;2023-02-28T05:08:57;-0.30;99.90
33139;DHT22;19501;50.948;5.316;2023-02-28T05:11:29;-0.40;99.90
33139;DHT22;19501;50.948;5.316;2023-02-28T05:13:59;-0.30;99.90
33139;DHT22;19501;50.948;5.316;2023-02-28T05:16:24;-0.50;99.90
33139;DHT22;19501;50.948;5.316;2023-02-28T05:18:50;-0.50;99.90
33139;DHT22;19501;50.948;5.316;2023-02-28T05:23:53;-0.60;99.90
33139;DHT22;19501;50.948;5.316;2023-02-28T05:26:19;-0.50;99.90
33139;DHT22;19501;50.948;5.316;2023-02-28T05:28:44;-0.60;99.90
33139;DHT22;19501;50.948;5.316;2023-02-28T05:31:11;-0.50;99.90
33139;DHT22;19501;50.948;5.316;2023-02-28T05:33:37;-0.50;99.90
33139;DHT22;19501;50.948;5.316;2023-02-28T05:36:03;-0.40;99.90
33139;DHT22;19501;50.948;5.316;2023-02-28T05:38:29;-0.50;99.90
33139;DHT22;19501;50.948;5.316;2023-02-28T05:40:57;-0.70;99.90
33139;DHT22;19501;50.948;5.316;2023-02-28T05:43:23;-0.80;99.90
33139;DHT22;19501;50.948;5.316;2023-02-28T05:45:49;-0.70;99.90
33139;DHT22;19501;50.948;5.316;2023-02-28T05:48:16;-0.60;99.90
33139;DHT22;19501;50.948;5.316;2023-02-28T05:50:43;-0.60;99.90
33139;DHT22;19501;50.948;5.316;2023-02-28T05:53:11;-0.60;99.90
33139;DHT22;19501;50.948;5.316;2023-02-28T05:55:37;-0.80;99.90
33139;DHT22;19501;50.948;5.316;2023-02-28T05:58:03;-0.90;99.90
33139;DHT22;19501;50.948;5.316;2023-02-28T06:00:29;-0.80;99.90
33139;DHT22;19501;50.948;5.316;2023-02-28T06:02:54;-0.70;99.90
33139;DHT22;19501;50.948;5.316;2023-02-28T06:05:23;-0.60;99.90
33139;DHT22;19501;50.948;5.316;2023-02-28T06:07:49;-0.60;99.90
33139;DHT22;19501;50.948;5.316;2023-02-28T06:10:15;-0.60;99.90
33139;DHT22;19501;50.948;5.316;2023-02-28T06:12:41;-0.60;99.90
33139;DHT22;19501;50.948;5.316;2023-02-28T06:15:17;-0.60;99.90
33139;DHT22;19501;50.948;5.316;2023-02-28T06:17:43;-0.70;99.90
33139;DHT22;19501;50.948;5.316;2023-02-28T06:20:10;-0.70;99.90
33139;DHT22;19501;50.948;5.316;2023-02-28T06:22:38;-0.90;99.90
33139;DHT22;19501;50.948;5.316;2023-02-28T06:25:05;-1.00;99.90
33139;DHT22;19501;50.948;5.316;2023-02-28T06:27:32;-1.00;99.90
33139;DHT22;19501;50.948;5.316;2023-02-28T06:29:58;-1.00;99.90
33139;DHT22;19501;50.948;5.316;2023-02-28T06:32:23;-0.90;99.90
33139;DHT22;19501;50.948;5.316;2023-02-28T06:34:49;-0.90;99.90
33139;DHT22;19501;50.948;5.316;2023-02-28T06:37:16;-0.90;99.90
33139;DHT22;19501;50.948;5.316;2023-02-28T06:39:42;-0.80;99.90
33139;DHT22;19501;50.948;5.316;2023-02-28T06:42:08;-0.80;99.90
33139;DHT22;19501;50.948;5.316;2023-02-28T06:44:33;-0.70;99.90
33139;DHT22;19501;50.948;5.316;2023-02-28T06:47:04;-0.50;99.90
33139;DHT22;19501;50.948;5.316;2023-02-28T06:49:32;-0.60;99.90
33139;DHT22;19501;50.948;5.316;2023-02-28T06:52:00;-0.60;99.90
33139;DHT22;19501;50.948;5.316;2023-02-28T06:54:28;-0.60;99.90
33139;DHT22;19501;50.948;5.316;2023-02-28T06:56:54;-0.60;99.90
33139;DHT22;19501;50.948;5.316;2023-02-28T06:59:20;-0.50;99.90
33139;DHT22;19501;50.948;5.316;2023-02-28T07:01:46;-0.50;99.90
33139;DHT22;19501;50.948;5.316;2023-02-28T07:04:12;-0.50;99.90
33139;DHT22;19501;50.948;5.316;2023-02-28T07:06:38;-0.50;99.90
33139;DHT22;19501;50.948;5.316;2023-02-28T07:09:04;-0.50;99.90
33139;DHT22;19501;50.948;5.316;2023-02-28T07:11:30;-0.50;99.90
33139;DHT22;19501;50.948;5.316;2023-02-28T07:13:56;-0.50;99.90
33139;DHT22;19501;50.948;5.316;2023-02-28T07:16:24;-0.50;99.90
33139;DHT22;19501;50.948;5.316;2023-02-28T07:18:52;-0.50;99.90
33139;DHT22;19501;50.948;5.316;2023-02-28T07:21:17;-0.40;99.90
33139;DHT22;19501;50.948;5.316;2023-02-28T07:23:43;-0.40;99.90
33139;DHT22;19501;50.948;5.316;2023-02-28T07:26:14;-0.40;99.90
33139;DHT22;19501;50.948;5.316;2023-02-28T07:28:44;-0.30;99.90
33139;DHT22;19501;50.948;5.316;2023-02-28T07:31:11;-0.20;99.90
33139;DHT22;19501;50.948;5.316;2023-02-28T07:33:39;-0.20;99.90
33139;DHT22;19501;50.948;5.316;2023-02-28T07:36:07;-0.20;99.90
33139;DHT22;19501;50.948;5.316;2023-02-28T07:38:35;-0.20;99.90
33139;DHT22;19501;50.948;5.316;2023-02-28T07:41:01;-0.20;99.90
33139;DHT22;19501;50.948;5.316;2023-02-28T07:43:30;-0.20;99.90
33139;DHT22;19501;50.948;5.316;2023-02-28T07:46:04;-0.10;99.90
33139;DHT22;19501;50.948;5.316;2023-02-28T07:48:30;0.00;99.90
33139;DHT22;19501;50.948;5.316;2023-02-28T07:50:56;0.10;99.90
33139;DHT22;19501;50.948;5.316;2023-02-28T07:53:22;0.20;99.90
33139;DHT22;19501;50.948;5.316;2023-02-28T07:55:48;0.20;99.90
33139;DHT22;19501;50.948;5.316;2023-02-28T07:58:14;0.20;99.90
33139;DHT22;19501;50.948;5.316;2023-02-28T08:00:39;0.30;99.90
33139;DHT22;19501;50.948;5.316;2023-02-28T08:03:05;0.30;99.90
33139;DHT22;19501;50.948;5.316;2023-02-28T08:05:37;0.30;99.90
33139;DHT22;19501;50.948;5.316;2023-02-28T08:08:03;0.30;99.90
33139;DHT22;19501;50.948;5.316;2023-02-28T08:10:28;0.40;99.90
33139;DHT22;19501;50.948;5.316;2023-02-28T08:12:54;0.40;99.90
33139;DHT22;19501;50.948;5.316;2023-02-28T08:15:20;0.50;99.90
33139;DHT22;19501;50.948;5.316;2023-02-28T08:17:45;0.50;99.90
33139;DHT22;19501;50.948;5.316;2023-02-28T08:20:13;0.70;99.90
33139;DHT22;19501;50.948;5.316;2023-02-28T08:22:39;0.70;99.90
33139;DHT22;19501;50.948;5.316;2023-02-28T08:25:05;0.80;99.90
33139;DHT22;19501;50.948;5.316;2023-02-28T08:27:32;0.80;99.90
33139;DHT22;19501;50.948;5.316;2023-02-28T08:29:58;1.00;99.90
33139;DHT22;19501;50.948;5.316;2023-02-28T08:32:23;1.10;99.90
33139;DHT22;19501;50.948;5.316;2023-02-28T08:34:49;1.10;99.90
33139;DHT22;19501;50.948;5.316;2023-02-28T08:37:15;1.20;99.90
33139;DHT22;19501;50.948;5.316;2023-02-28T08:39:40;1.30;99.90
33139;DHT22;19501;50.948;5.316;2023-02-28T08:42:06;1.40;99.90
33139;DHT22;19501;50.948;5.316;2023-02-28T08:44:31;1.40;99.90
33139;DHT22;19501;50.948;5.316;2023-02-28T08:46:57;1.40;99.90
33139;DHT22;19501;50.948;5.316;2023-02-28T08:49:23;1.40;99.90
33139;DHT22;19501;50.948;5.316;2023-02-28T08:51:48;1.50;99.90
33139;DHT22;19501;50.948;5.316;2023-02-28T08:54:14;1.50;99.90
33139;DHT22;19501;50.948;5.316;2023-02-28T08:56:45;1.50;99.90
33139;DHT22;19501;50.948;5.316;2023-02-28T08:59:10;1.60;99.90
33139;DHT22;19501;50.948;5.316;2023-02-28T09:01:36;1.70;99.90
33139;DHT22;19501;50.948;5.316;2023-02-28T09:04:02;1.80;99.90
33139;DHT22;19501;50.948;5.316;2023-02-28T09:06:28;1.90;99.90
33139;DHT22;19501;50.948;5.316;2023-02-28T09:08:56;2.00;99.90
33139;DHT22;19501;50.948;5.316;2023-02-28T09:11:23;2.00;99.90
33139;DHT22;19501;50.948;5.316;2023-02-28T09:13:49;2.20;99.90
33139;DHT22;19501;50.948;5.316;2023-02-28T09:16:16;2.20;99.90
33139;DHT22;19501;50.948;5.316;2023-02-28T09:18:42;2.20;99.90
33139;DHT22;19501;50.948;5.316;2023-02-28T09:21:11;2.30;99.90
33139;DHT22;19501;50.948;5.316;2023-02-28T09:23:39;2.50;99.90
33139;DHT22;19501;50.948;5.316;2023-02-28T09:26:06;2.50;99.90
33139;DHT22;19501;50.948;5.316;2023-02-28T09:28:31;2.60;99.90
33139;DHT22;19501;50.948;5.316;2023-02-28T09:30:57;2.70;99.90
33139;DHT22;19501;50.948;5.316;2023-02-28T09:33:24;2.80;99.90
33139;DHT22;19501;50.948;5.316;2023-02-28T09:35:53;2.80;99.90
33139;DHT22;19501;50.948;5.316;2023-02-28T09:38:22;2.90;99.90
33139;DHT22;19501;50.948;5.316;2023-02-28T09:43:18;3.00;99.90
33139;DHT22;19501;50.948;5.316;2023-02-28T09:48:48;3.20;99.90
33139;DHT22;19501;50.948;5.316;2023-02-28T09:54:08;3.40;99.90
33139;DHT22;19501;50.948;5.316;2023-02-28T09:56:39;3.50;99.90
33139;DHT22;19501;50.948;5.316;2023-02-28T10:02:02;3.60;99.70
33139;DHT22;19501;50.948;5.316;2023-02-28T10:07:19;3.70;99.00
33139;DHT22;19501;50.948;5.316;2023-02-28T10:09:51;3.70;99.00
33139;DHT22;19501;50.948;5.316;2023-02-28T10:12:19;3.80;99.10
33139;DHT22;19501;50.948;5.316;2023-02-28T10:14:48;3.80;98.80
33139;DHT22;19501;50.948;5.316;2023-02-28T10:17:21;3.90;98.40
33139;DHT22;19501;50.948;5.316;2023-02-28T10:20:00;3.90;98.50
33139;DHT22;19501;50.948;5.316;2023-02-28T10:22:38;3.90;98.10
33139;DHT22;19501;50.948;5.316;2023-02-28T10:25:20;4.00;98.40
33139;DHT22;19501;50.948;5.316;2023-02-28T10:27:46;4.10;97.60
33139;DHT22;19501;50.948;5.316;2023-02-28T10:30:12;4.20;97.40
33139;DHT22;19501;50.948;5.316;2023-02-28T10:32:40;4.20;97.20
33139;DHT22;19501;50.948;5.316;2023-02-28T10:35:16;4.20;96.70
33139;DHT22;19501;50.948;5.316;2023-02-28T10:37:44;4.30;96.60
33139;DHT22;19501;50.948;5.316;2023-02-28T10:43:00;4.50;95.90
33139;DHT22;19501;50.948;5.316;2023-02-28T10:45:28;4.40;95.90
33139;DHT22;19501;50.948;5.316;2023-02-28T10:48:02;4.50;96.40
33139;DHT22;19501;50.948;5.316;2023-02-28T10:58:52;4.80;93.60
33139;DHT22;19501;50.948;5.316;2023-02-28T11:03:59;5.10;94.40
33139;DHT22;19501;50.948;5.316;2023-02-28T11:06:25;5.20;94.20
33139;DHT22;19501;50.948;5.316;2023-02-28T11:08:54;5.20;93.80
33139;DHT22;19501;50.948;5.316;2023-02-28T11:11:22;5.20;93.90
33139;DHT22;19501;50.948;5.316;2023-02-28T11:13:55;5.30;93.30
33139;DHT22;19501;50.948;5.316;2023-02-28T11:16:34;5.30;93.60
33139;DHT22;19501;50.948;5.316;2023-02-28T11:19:02;5.30;93.10
33139;DHT22;19501;50.948;5.316;2023-02-28T11:21:32;5.40;92.90
33139;DHT22;19501;50.948;5.316;2023-02-28T11:24:05;5.40;93.10
33139;DHT22;19501;50.948;5.316;2023-02-28T11:26:53;5.50;92.70
33139;DHT22;19501;50.948;5.316;2023-02-28T11:29:25;5.40;92.50
33139;DHT22;19501;50.948;5.316;2023-02-28T11:32:19;5.40;92.10
33139;DHT22;19501;50.948;5.316;2023-02-28T11:34:47;5.60;92.10
33139;DHT22;19501;50.948;5.316;2023-02-28T11:37:27;5.80;93.00
33139;DHT22;19501;50.948;5.316;2023-02-28T11:39:54;5.90;92.90
33139;DHT22;19501;50.948;5.316;2023-02-28T11:47:55;6.60;91.40
33139;DHT22;19501;50.948;5.316;2023-02-28T11:50:49;6.80;91.10
33139;DHT22;19501;50.948;5.316;2023-02-28T12:07:56;10.50;85.70
33139;DHT22;19501;50.948;5.316;2023-02-28T12:10:28;11.10;83.90
33139;DHT22;19501;50.948;5.316;2023-02-28T12:13:27;11.50;81.50
33139;DHT22;19501;50.948;5.316;2023-02-28T12:21:04;12.10;80.50
33139;DHT22;19501;50.948;5.316;2023-02-28T12:28:47;12.40;76.50
33139;DHT22;19501;50.948;5.316;2023-02-28T12:31:24;12.70;75.10
33139;DHT22;19501;50.948;5.316;2023-02-28T12:33:55;13.00;72.00
33139;DHT22;19501;50.948;5.316;2023-02-28T12:36:23;13.10;73.20
33139;DHT22;19501;50.948;5.316;2023-02-28T12:39:01;13.10;72.10
33139;DHT22;19501;50.948;5.316;2023-02-28T12:41:56;13.90;71.50
33139;DHT22;19501;50.948;5.316;2023-02-28T12:44:46;13.10;71.10
33139;DHT22;19501;50.948;5.316;2023-02-28T12:47:18;12.20;70.30
33139;DHT22;19501;50.948;5.316;2023-02-28T12:50:00;11.70;72.00
33139;DHT22;19501;50.948;5.316;2023-02-28T12:55:29;11.10;74.80
33139;DHT22;19501;50.948;5.316;2023-02-28T12:58:20;12.00;72.20
33139;DHT22;19501;50.948;5.316;2023-02-28T13:04:21;13.50;70.60
33139;DHT22;19501;50.948;5.316;2023-02-28T13:09:26;14.20;67.40
33139;DHT22;19501;50.948;5.316;2023-02-28T13:11:53;12.80;67.80
33139;DHT22;19501;50.948;5.316;2023-02-28T13:19:30;12.90;67.00
33139;DHT22;19501;50.948;5.316;2023-02-28T13:21:57;12.10;68.20
33139;DHT22;19501;50.948;5.316;2023-02-28T13:24:44;12.20;69.00
33139;DHT22;19501;50.948;5.316;2023-02-28T13:27:22;12.00;68.60
33139;DHT22;19501;50.948;5.316;2023-02-28T13:29:50;12.80;68.80
33139;DHT22;19501;50.948;5.316;2023-02-28T13:39:54;14.40;68.10
33139;DHT22;19501;50.948;5.316;2023-02-28T13:47:49;16.20;64.30
33139;DHT22;19501;50.948;5.316;2023-02-28T13:58:08;14.50;63.70
33139;DHT22;19501;50.948;5.316;2023-02-28T14:01:07;14.70;63.20
33139;DHT22;19501;50.948;5.316;2023-02-28T14:06:30;15.90;62.00
33139;DHT22;19501;50.948;5.316;2023-02-28T14:09:29;16.40;61.30
33139;DHT22;19501;50.948;5.316;2023-02-28T14:15:00;15.10;62.10
33139;DHT22;19501;50.948;5.316;2023-02-28T14:17:26;14.90;63.50
33139;DHT22;19501;50.948;5.316;2023-02-28T14:19:52;14.90;63.10
33139;DHT22;19501;50.948;5.316;2023-02-28T14:22:51;14.30;65.00
33139;DHT22;19501;50.948;5.316;2023-02-28T14:25:34;14.70;63.60
33139;DHT22;19501;50.948;5.316;2023-02-28T14:36:31;12.90;65.70
33139;DHT22;19501;50.948;5.316;2023-02-28T14:39:07;12.20;66.80
33139;DHT22;19501;50.948;5.316;2023-02-28T14:41:35;11.20;68.00
33139;DHT22;19501;50.948;5.316;2023-02-28T14:46:42;12.60;67.90
33139;DHT22;19501;50.948;5.316;2023-02-28T14:49:48;11.90;67.10
33139;DHT22;19501;50.948;5.316;2023-02-28T14:54:37;12.30;68.20
33139;DHT22;19501;50.948;5.316;2023-02-28T14:57:03;12.40;67.40
33139;DHT22;19501;50.948;5.316;2023-02-28T14:59:32;12.80;67.30
33139;DHT22;19501;50.948;5.316;2023-02-28T15:02:31;12.60;67.00
33139;DHT22;19501;50.948;5.316;2023-02-28T15:05:23;11.60;68.70
33139;DHT22;19501;50.948;5.316;2023-02-28T15:07:48;10.80;69.20
33139;DHT22;19501;50.948;5.316;2023-02-28T15:10:18;10.20;70.50
33139;DHT22;19501;50.948;5.316;2023-02-28T15:12:58;10.50;70.20
33139;DHT22;19501;50.948;5.316;2023-02-28T15:15:41;10.50;69.60
33139;DHT22;19501;50.948;5.316;2023-02-28T15:18:14;10.00;70.60
33139;DHT22;19501;50.948;5.316;2023-02-28T15:20:42;9.90;71.40
33139;DHT22;19501;50.948;5.316;2023-02-28T15:23:09;10.30;70.90
33139;DHT22;19501;50.948;5.316;2023-02-28T15:25:36;10.00;70.20
33139;DHT22;19501;50.948;5.316;2023-02-28T15:28:02;9.90;70.50
33139;DHT22;19501;50.948;5.316;2023-02-28T15:30:31;9.70;70.80
33139;DHT22;19501;50.948;5.316;2023-02-28T15:33:20;9.70;71.20
33139;DHT22;19501;50.948;5.316;2023-02-28T15:35:46;9.70;72.00
33139;DHT22;19501;50.948;5.316;2023-02-28T15:38:25;9.50;72.00
33139;DHT22;19501;50.948;5.316;2023-02-28T15:43:30;9.60;70.70
33139;DHT22;19501;50.948;5.316;2023-02-28T15:45:59;9.60;71.70
33139;DHT22;19501;50.948;5.316;2023-02-28T15:48:27;9.20;72.40
33139;DHT22;19501;50.948;5.316;2023-02-28T15:51:05;9.40;72.00
33139;DHT22;19501;50.948;5.316;2023-02-28T15:53:36;9.50;71.30
33139;DHT22;19501;50.948;5.316;2023-02-28T15:56:06;9.40;71.80
33139;DHT22;19501;50.948;5.316;2023-02-28T15:58:38;9.30;73.00
33139;DHT22;19501;50.948;5.316;2023-02-28T16:01:18;9.20;73.10
33139;DHT22;19501;50.948;5.316;2023-02-28T16:03:48;8.90;73.70
33139;DHT22;19501;50.948;5.316;2023-02-28T16:06:28;8.80;74.00
33139;DHT22;19501;50.948;5.316;2023-02-28T16:08:56;8.90;74.00
33139;DHT22;19501;50.948;5.316;2023-02-28T16:11:22;8.90;73.30
33139;DHT22;19501;50.948;5.316;2023-02-28T16:13:48;8.50;74.70
33139;DHT22;19501;50.948;5.316;2023-02-28T16:16:20;8.30;74.20
33139;DHT22;19501;50.948;5.316;2023-02-28T16:18:46;8.10;74.80
33139;DHT22;19501;50.948;5.316;2023-02-28T16:21:12;8.10;73.80
33139;DHT22;19501;50.948;5.316;2023-02-28T16:23:37;8.00;74.80
33139;DHT22;19501;50.948;5.316;2023-02-28T16:26:04;7.90;75.10
33139;DHT22;19501;50.948;5.316;2023-02-28T16:28:35;7.60;75.80
33139;DHT22;19501;50.948;5.316;2023-02-28T16:31:04;7.50;75.90
33139;DHT22;19501;50.948;5.316;2023-02-28T16:33:31;7.50;76.00
33139;DHT22;19501;50.948;5.316;2023-02-28T16:35:57;7.20;77.30
33139;DHT22;19501;50.948;5.316;2023-02-28T16:38:23;7.30;77.80
33139;DHT22;19501;50.948;5.316;2023-02-28T16:40:51;6.90;77.70
33139;DHT22;19501;50.948;5.316;2023-02-28T16:43:23;6.90;77.80
33139;DHT22;19501;50.948;5.316;2023-02-28T16:45:57;6.70;77.30
33139;DHT22;19501;50.948;5.316;2023-02-28T16:48:24;6.60;78.90
33139;DHT22;19501;50.948;5.316;2023-02-28T16:50:52;6.50;78.70
33139;DHT22;19501;50.948;5.316;2023-02-28T16:53:17;6.50;78.70
33139;DHT22;19501;50.948;5.316;2023-02-28T16:55:43;6.50;78.90
33139;DHT22;19501;50.948;5.316;2023-02-28T16:58:14;6.60;79.50
33139;DHT22;19501;50.948;5.316;2023-02-28T17:00:40;6.70;79.20
33139;DHT22;19501;50.948;5.316;2023-02-28T17:03:25;6.80;79.10
33139;DHT22;19501;50.948;5.316;2023-02-28T17:05:51;6.70;78.40
33139;DHT22;19501;50.948;5.316;2023-02-28T17:08:17;6.40;79.10
33139;DHT22;19501;50.948;5.316;2023-02-28T17:10:45;6.30;79.50
33139;DHT22;19501;50.948;5.316;2023-02-28T17:13:11;6.20;80.30
33139;DHT22;19501;50.948;5.316;2023-02-28T17:15:37;6.30;81.40
33139;DHT22;19501;50.948;5.316;2023-02-28T17:18:04;6.20;82.00
33139;DHT22;19501;50.948;5.316;2023-02-28T17:20:30;6.10;81.20
33139;DHT22;19501;50.948;5.316;2023-02-28T17:22:56;6.00;81.80
33139;DHT22;19501;50.948;5.316;2023-02-28T17:25:23;6.00;82.40
33139;DHT22;19501;50.948;5.316;2023-02-28T17:27:50;6.00;81.90
33139;DHT22;19501;50.948;5.316;2023-02-28T17:30:21;6.10;82.50
33139;DHT22;19501;50.948;5.316;2023-02-28T17:32:47;6.10;82.50
33139;DHT22;19501;50.948;5.316;2023-02-28T17:35:13;6.00;82.90
33139;DHT22;19501;50.948;5.316;2023-02-28T17:37:39;5.90;82.90
33139;DHT22;19501;50.948;5.316;2023-02-28T17:40:05;5.90;82.60
33139;DHT22;19501;50.948;5.316;2023-02-28T17:42:31;5.90;82.50
33139;DHT22;19501;50.948;5.316;2023-02-28T17:44:57;5.90;83.00
33139;DHT22;19501;50.948;5.316;2023-02-28T17:47:22;5.80;83.60
33139;DHT22;19501;50.948;5.316;2023-02-28T17:49:48;5.80;83.90
33139;DHT22;19501;50.948;5.316;2023-02-28T17:52:14;5.80;84.80
33139;DHT22;19501;50.948;5.316;2023-02-28T17:54:39;5.80;84.20
33139;DHT22;19501;50.948;5.316;2023-02-28T17:57:05;5.90;85.00
33139;DHT22;19501;50.948;5.316;2023-02-28T17:59:31;6.00;85.10
33139;DHT22;19501;50.948;5.316;2023-02-28T18:02:02;6.10;84.80
33139;DHT22;19501;50.948;5.316;2023-02-28T18:04:29;6.10;84.60
33139;DHT22;19501;50.948;5.316;2023-02-28T18:06:57;6.00;84.80
33139;DHT22;19501;50.948;5.316;2023-02-28T18:09:26;6.00;85.20
33139;DHT22;19501;50.948;5.316;2023-02-28T18:11:54;6.00;85.10
33139;DHT22;19501;50.948;5.316;2023-02-28T18:14:22;5.80;85.30
33139;DHT22;19501;50.948;5.316;2023-02-28T18:16:50;5.70;85.20
33139;DHT22;19501;50.948;5.316;2023-02-28T18:19:15;5.50;86.30
33139;DHT22;19501;50.948;5.316;2023-02-28T18:21:46;5.50;86.20
33139;DHT22;19501;50.948;5.316;2023-02-28T18:24:13;5.40;87.20
33139;DHT22;19501;50.948;5.316;2023-02-28T18:26:40;5.40;87.00
33139;DHT22;19501;50.948;5.316;2023-02-28T18:29:07;5.40;87.10
33139;DHT22;19501;50.948;5.316;2023-02-28T18:31:33;5.30;86.80
33139;DHT22;19501;50.948;5.316;2023-02-28T18:33:59;5.20;86.60